createdAt,value
2022-11-02T00:13:39.940Z,19.60
2022-11-02T00:21:00.742Z,19.50
2022-11-02T00:50:24.570Z,17.50
2022-11-02T00:55:45.977Z,18.70
2022-11-02T01:01:08.217Z,17.30
2022-11-02T01:06:32.269Z,17.70
2022-11-02T01:11:54.057Z,18.10
2022-11-02T01:17:16.271Z,18.50
2022-11-02T01:22:38.159Z,17.60
2022-11-02T01:28:00.020Z,18.30
2022-11-02T01:33:23.222Z,17.70
2022-11-02T01:39:42.853Z,17.60
2022-11-02T01:45:17.053Z,16.70
2022-11-02T01:51:18.555Z,17.60
2022-11-02T02:03:57.524Z,16.90
2022-11-02T02:09:37.383Z,17.40
2022-11-02T02:15:25.756Z,18.10
2022-11-02T02:22:06.891Z,17.90
2022-11-02T03:35:03.509Z,20.70
2022-11-02T03:40:58.929Z,21.90
2022-11-02T03:46:49.689Z,20.60
2022-11-02T04:01:54.406Z,20.70
2022-11-02T04:31:02.375Z,21.30
2022-11-02T04:36:44.083Z,21.80
2022-11-02T04:42:11.095Z,21.20
2022-11-02T04:48:16.721Z,21.70
2022-11-02T04:54:30.287Z,22.00
2022-11-02T05:00:08.387Z,22.10
2022-11-02T05:05:57.539Z,23.50
2022-11-02T05:11:52.816Z,24.00
2022-11-02T05:23:57.043Z,25.60
2022-11-02T05:36:48.421Z,23.60
2022-11-02T05:42:17.673Z,23.40
2022-11-02T05:56:04.425Z,22.90
2022-11-02T06:16:23.644Z,25.10
2022-11-02T06:22:41.463Z,25.50
2022-11-02T06:35:49.357Z,22.30
2022-11-02T06:41:39.552Z,22.60
2022-11-02T06:47:53.085Z,22.70
2022-11-02T06:53:45.523Z,23.30
2022-11-02T06:59:06.487Z,22.50
2022-11-02T07:04:27.548Z,24.60
2022-11-02T07:09:48.252Z,24.80
2022-11-02T07:15:09.429Z,23.60
2022-11-02T07:20:51.111Z,25.60
2022-11-02T07:27:08.408Z,25.70
2022-11-02T07:32:38.085Z,24.30
2022-11-02T07:38:02.430Z,22.10
2022-11-02T07:43:23.530Z,22.60
2022-11-02T07:49:05.385Z,24.50
2022-11-02T07:54:26.694Z,22.40
2022-11-02T07:59:47.822Z,23.20
2022-11-02T08:05:08.661Z,24.30
2022-11-02T08:10:35.503Z,25.50
2022-11-02T08:16:02.262Z,22.60
2022-11-02T08:21:32.610Z,22.10
2022-11-02T08:26:54.877Z,22.50
2022-11-02T08:32:15.809Z,22.80
2022-11-02T08:51:36.663Z,21.00
2022-11-02T08:57:37.384Z,20.30
2022-11-02T09:03:25.972Z,24.50
2022-11-02T09:09:10.685Z,23.30
2022-11-02T09:15:08.177Z,21.10
2022-11-02T09:20:53.831Z,22.20
2022-11-02T09:26:35.808Z,21.30
2022-11-02T09:32:42.070Z,21.60
2022-11-02T09:38:23.649Z,20.20
2022-11-02T09:44:01.266Z,19.30
2022-11-02T09:49:25.231Z,18.30
2022-11-02T09:54:50.423Z,18.60
2022-11-02T10:00:17.917Z,16.00
2022-11-02T10:05:47.656Z,15.40
2022-11-02T10:11:25.687Z,12.40
2022-11-02T10:17:35.387Z,11.70
2022-11-02T10:23:03.965Z,10.10
2022-11-02T10:28:34.338Z,10.80
2022-11-02T10:33:58.278Z,10.20
2022-11-02T10:39:30.399Z,10.90
2022-11-02T10:45:02.079Z,10.20
2022-11-02T10:50:58.623Z,10.20
2022-11-02T10:56:21.184Z,10.10
2022-11-02T11:02:02.635Z,9.60
2022-11-02T11:07:27.227Z,5.30
2022-11-02T11:12:47.845Z,5.70
2022-11-02T11:24:18.421Z,5.60
2022-11-02T11:29:45.395Z,5.60
2022-11-02T11:35:17.858Z,5.80
2022-11-02T11:40:43.310Z,5.00
2022-11-02T11:46:07.254Z,5.90
2022-11-02T11:51:33.755Z,5.00
2022-11-02T11:56:59.654Z,5.10
2022-11-02T12:02:27.776Z,5.10
2022-11-02T12:08:29.054Z,5.10
2022-11-02T12:14:02.931Z,4.40
2022-11-02T12:19:33.828Z,4.80
2022-11-02T12:25:33.174Z,4.30
2022-11-02T12:31:27.050Z,4.00
2022-11-02T12:43:13.588Z,3.90
2022-11-02T12:48:50.532Z,4.40
2022-11-02T12:54:19.755Z,3.60
2022-11-02T12:59:43.685Z,4.30
2022-11-02T13:05:20.863Z,4.80
2022-11-02T13:10:53.465Z,4.40
2022-11-02T13:16:17.380Z,5.00
2022-11-02T13:21:44.298Z,4.90
2022-11-02T13:27:34.891Z,5.70
2022-11-02T13:33:03.115Z,5.20
2022-11-02T13:38:32.108Z,5.00
2022-11-02T13:44:22.527Z,5.20
2022-11-02T13:49:49.393Z,5.40
2022-11-02T13:55:18.463Z,5.70
2022-11-02T14:00:45.607Z,6.20
2022-11-02T14:06:15.147Z,6.10
2022-11-02T14:11:47.914Z,6.10
2022-11-02T14:17:28.771Z,6.00
2022-11-02T14:23:14.419Z,5.90
2022-11-02T14:28:42.784Z,7.30
2022-11-02T14:34:26.147Z,6.50
2022-11-02T14:39:52.338Z,7.00
2022-11-02T14:45:48.266Z,7.60
2022-11-02T14:51:35.498Z,7.20
2022-11-02T14:57:18.444Z,7.50
2022-11-02T15:02:43.070Z,6.60
2022-11-02T15:08:21.787Z,7.10
2022-11-02T15:13:47.360Z,8.30
2022-11-02T15:19:49.168Z,7.50
2022-11-02T15:25:11.016Z,7.60
2022-11-02T15:30:32.658Z,8.00
2022-11-02T15:35:54.911Z,37.40
2022-11-02T15:41:44.548Z,112.90
2022-11-02T15:47:43.884Z,17.60
2022-11-02T15:53:24.332Z,13.10
2022-11-02T15:59:07.097Z,12.80
2022-11-02T16:04:27.524Z,9.40
2022-11-02T16:09:48.464Z,9.40
2022-11-02T16:15:18.290Z,9.30
2022-11-02T16:20:39.761Z,8.50
2022-11-02T16:26:28.019Z,7.80
2022-11-02T16:32:50.571Z,7.80
2022-11-02T16:39:35.014Z,7.00
2022-11-02T16:45:34.877Z,6.50
2022-11-02T16:51:06.362Z,7.40
2022-11-02T16:56:31.919Z,8.60
2022-11-02T17:01:59.889Z,9.90
2022-11-02T17:07:30.256Z,10.10
2022-11-02T17:12:52.045Z,12.70
2022-11-02T17:19:15.900Z,14.90
2022-11-02T17:26:07.719Z,13.10
2022-11-02T17:32:48.993Z,12.50
2022-11-02T17:39:15.545Z,14.10
2022-11-02T17:46:01.614Z,16.60
2022-11-02T17:51:42.795Z,14.40
2022-11-02T17:57:15.091Z,10.80
2022-11-02T18:02:36.174Z,10.90
2022-11-02T18:08:57.057Z,11.20
2022-11-02T18:15:39.208Z,9.00
2022-11-02T18:21:53.592Z,9.30
2022-11-02T18:27:40.630Z,8.20
2022-11-02T18:34:03.773Z,8.50
2022-11-02T18:40:32.792Z,10.40
2022-11-02T18:47:16.590Z,10.40
2022-11-02T18:53:50.635Z,11.70
2022-11-02T19:00:14.869Z,12.60
2022-11-02T19:06:58.332Z,13.10
2022-11-02T19:13:25.094Z,14.30
2022-11-02T19:18:52.208Z,15.00
2022-11-02T19:25:17.324Z,14.10
2022-11-02T19:32:01.257Z,24.00
2022-11-02T19:38:46.362Z,30.20
2022-11-02T19:45:30.774Z,23.00
2022-11-02T19:52:14.059Z,19.50
2022-11-02T19:58:56.227Z,17.10
2022-11-02T20:04:42.332Z,13.60
2022-11-02T20:10:05.355Z,13.50
2022-11-02T20:16:28.481Z,14.20
2022-11-02T20:23:11.321Z,14.10
2022-11-02T20:29:56.531Z,16.30
2022-11-02T20:36:38.102Z,14.80
2022-11-02T20:43:22.828Z,14.50
2022-11-02T20:50:08.086Z,13.40
2022-11-02T20:56:50.832Z,14.20
2022-11-02T21:03:32.945Z,15.00
2022-11-02T21:10:16.377Z,18.90
2022-11-02T21:17:00.431Z,22.00
2022-11-02T21:22:38.858Z,18.40
2022-11-02T21:28:00.572Z,18.60
2022-11-02T21:33:21.450Z,22.90
2022-11-02T21:38:44.525Z,21.00
2022-11-02T21:44:45.861Z,22.10
2022-11-02T21:50:29.717Z,21.20
2022-11-02T21:56:41.135Z,24.30
2022-11-02T22:02:02.807Z,24.50
2022-11-02T22:07:23.736Z,24.90
2022-11-02T22:13:03.320Z,25.70
2022-11-02T22:18:24.130Z,26.50
2022-11-02T22:23:46.706Z,23.50
2022-11-02T22:29:07.722Z,23.70
2022-11-02T22:34:28.138Z,24.70
2022-11-02T22:39:48.691Z,24.50
2022-11-02T22:45:10.000Z,23.70
2022-11-02T22:50:30.516Z,21.90
2022-11-02T22:56:12.782Z,21.80
2022-11-02T23:01:36.067Z,21.20
2022-11-02T23:06:57.257Z,21.10
2022-11-02T23:12:17.494Z,23.20
2022-11-02T23:17:38.384Z,22.80
2022-11-02T23:23:17.644Z,23.00
2022-11-02T23:28:59.040Z,35.50
2022-11-02T23:34:20.019Z,28.40
2022-11-02T23:40:47.743Z,28.50
2022-11-02T23:47:39.221Z,28.10
